Map

Track Data

SID SEASON NUMBER BASIN SUBBASIN NAME ISO_TIME NATURE LAT LON WMO_WIND WMO_PRES WMO_AGENCY TRACK_TYPE DIST2LAND LANDFALL IFLAG USA_AGENCY USA_ATCF_ID USA_LAT USA_LON USA_RECORD USA_STATUS USA_WIND USA_PRES USA_SSHS USA_R34_NE USA_R34_SE USA_R34_SW USA_R34_NW USA_R50_NE USA_R50_SE USA_R50_SW USA_R50_NW USA_R64_NE USA_R64_SE USA_R64_SW USA_R64_NW USA_POCI USA_ROCI USA_RMW USA_EYE TOKYO_LAT TOKYO_LON TOKYO_GRADE TOKYO_WIND TOKYO_PRES TOKYO_R50_DIR TOKYO_R50_LONG TOKYO_R50_SHORT TOKYO_R30_DIR TOKYO_R30_LONG TOKYO_R30_SHORT TOKYO_LAND CMA_LAT CMA_LON CMA_CAT CMA_WIND CMA_PRES HKO_LAT HKO_LON HKO_CAT HKO_WIND HKO_PRES NEWDELHI_LAT NEWDELHI_LON NEWDELHI_GRADE NEWDELHI_WIND NEWDELHI_PRES NEWDELHI_CI NEWDELHI_DP NEWDELHI_POCI REUNION_LAT REUNION_LON REUNION_TYPE REUNION_WIND REUNION_PRES REUNION_TNUM REUNION_CI REUNION_RMW REUNION_R34_NE REUNION_R34_SE REUNION_R34_SW REUNION_R34_NW REUNION_R50_NE REUNION_R50_SE REUNION_R50_SW REUNION_R50_NW REUNION_R64_NE REUNION_R64_SE REUNION_R64_SW REUNION_R64_NW BOM_LAT BOM_LON BOM_TYPE BOM_WIND BOM_PRES BOM_TNUM BOM_CI BOM_RMW BOM_R34_NE BOM_R34_SE BOM_R34_SW BOM_R34_NW BOM_R50_NE BOM_R50_SE BOM_R50_SW BOM_R50_NW BOM_R64_NE BOM_R64_SE BOM_R64_SW BOM_R64_NW BOM_ROCI BOM_POCI BOM_EYE BOM_POS_METHOD BOM_PRES_METHOD NADI_LAT NADI_LON NADI_CAT NADI_WIND NADI_PRES WELLINGTON_LAT WELLINGTON_LON WELLINGTON_WIND WELLINGTON_PRES DS824_LAT DS824_LON DS824_STAGE DS824_WIND DS824_PRES TD9636_LAT TD9636_LON TD9636_STAGE TD9636_WIND TD9636_PRES TD9635_LAT TD9635_LON TD9635_WIND TD9635_PRES TD9635_ROCI NEUMANN_LAT NEUMANN_LON NEUMANN_CLASS NEUMANN_WIND NEUMANN_PRES MLC_LAT MLC_LON MLC_CLASS MLC_WIND MLC_PRES USA_GUST BOM_GUST BOM_GUST_PER REUNION_GUST REUNION_GUST_PER USA_SEAHGT USA_SEARAD_NE USA_SEARAD_SE USA_SEARAD_SW USA_SEARAD_NW STORM_SPEED STORM_DIR
1990262N15315 1990 89 NA NA NOT_NAMED 1990-09-18 12:00:00 TS 15.0000 -45.0000 30 hurdat_atl main 1377 1370 O_____________ hurdat_atl AL111990 15.0000 -45.0000 TD 30 -1 6 303
1990262N15315 1990 89 NA NA NOT_NAMED 1990-09-18 15:00:00 TS 15.1601 -45.2599 main 1375 1369 P_____________ AL111990 15.1601 -45.2599 TD 30 -1 6 302
1990262N15315 1990 89 NA NA NOT_NAMED 1990-09-18 18:00:00 TS 15.3000 -45.5000 30 hurdat_atl main 1372 1365 O_____________ hurdat_atl AL111990 15.3000 -45.5000 TD 30 -1 5 299
1990262N15315 1990 89 NA NA NOT_NAMED 1990-09-18 21:00:00 TS 15.4073 -45.7201 main 1369 1360 P_____________ AL111990 15.4073 -45.7201 TD 30 -1 5 293
1990262N15315 1990 89 NA NA NOT_NAMED 1990-09-19 00:00:00 TS 15.5000 -46.0000 30 hurdat_atl main 1360 1347 O_____________ hurdat_atl AL111990 15.5000 -46.0000 TD 30 -1 7 285
1990262N15315 1990 89 NA NA NOT_NAMED 1990-09-19 03:00:00 TS 15.5927 -46.4425 main 1347 1330 P_____________ AL111990 15.5927 -46.4425 TD 30 -1 9 283
1990262N15315 1990 89 NA NA NOT_NAMED 1990-09-19 06:00:00 TS 15.7000 -46.9000 30 hurdat_atl main 1330 1325 O_____________ hurdat_atl AL111990 15.7000 -46.9000 TD 30 -1 8 289
1990262N15315 1990 89 NA NA NOT_NAMED 1990-09-19 09:00:00 TS 15.8650 -47.2674 main 1330 1325 P_____________ AL111990 15.8650 -47.2674 TD 30 -1 7 297
1990262N15315 1990 89 NA NA NOT_NAMED 1990-09-19 12:00:00 TS 16.0000 -47.5000 30 hurdat_atl main 1330 1330 O_____________ hurdat_atl AL111990 16.0000 -47.5000 TD 30 -1 3 303
1990262N15315 1990 89 NA NA NOT_NAMED 1990-09-19 15:00:00 TS 16.0224 -47.5151 main 1330 1330 P_____________ AL111990 16.0224 -47.5151 TD 30 -1 0 0
1990262N15315 1990 89 NA NA NOT_NAMED 1990-09-19 18:00:00 TS 16.0000 -47.5000 30 hurdat_atl main 1330 1321 O_____________ hurdat_atl AL111990 16.0000 -47.5000 TD 30 -1 2 258
1990262N15315 1990 89 NA NA NOT_NAMED 1990-09-19 21:00:00 TS 15.9851 -47.6925 main 1321 1312 P_____________ AL111990 15.9851 -47.6925 TD 30 -1 4 270
1990262N15315 1990 89 NA NA NOT_NAMED 1990-09-20 00:00:00 TS 16.0000 -47.9000 30 hurdat_atl main 1312 1312 O_____________ hurdat_atl AL111990 16.0000 -47.9000 TD 30 -1 3 292
1990262N15315 1990 89 NA NA NOT_NAMED 1990-09-20 03:00:00 TS 16.0850 -47.9575 main 1318 1318 P_____________ AL111990 16.0850 -47.9575 TD 30 -1 2 333
1990262N15315 1990 89 NA NA NOT_NAMED 1990-09-20 06:00:00 TS 16.2000 -48.0000 30 hurdat_atl main 1328 1324 O_____________ hurdat_atl AL111990 16.2000 -48.0000 TD 30 -1 3 321
1990262N15315 1990 89 NA NA NOT_NAMED 1990-09-20 09:00:00 TS 16.2925 -48.1275 main 1334 1330 P_____________ AL111990 16.2925 -48.1275 TD 30 -1 4 305
1990262N15315 1990 89 NA NA NOT_NAMED 1990-09-20 12:00:00 TS 16.4000 -48.3000 30 hurdat_atl main 1336 1332 O_____________ hurdat_atl AL111990 16.4000 -48.3000 TD 30 -1 5 306
1990262N15315 1990 89 NA NA NOT_NAMED 1990-09-20 15:00:00 TS 16.5575 -48.5074 main 1349 1344 P_____________ AL111990 16.5575 -48.5074 TD 30 -1 5 308
1990262N15315 1990 89 NA NA NOT_NAMED 1990-09-20 18:00:00 TS 16.7000 -48.7000 30 hurdat_atl main 1349 1344 O_____________ hurdat_atl AL111990 16.7000 -48.7000 TD 30 -1 4 305
1990262N15315 1990 89 NA NA NOT_NAMED 1990-09-20 21:00:00 TS 16.7650 -48.8151 main 1354 1350 P_____________ AL111990 16.7650 -48.8151 TD 30 -1 2 298
1990262N15315 1990 89 NA NA NOT_NAMED 1990-09-21 00:00:00 TS 16.8000 -48.9000 30 hurdat_atl main 1350 1345 O_____________ hurdat_atl AL111990 16.8000 -48.9000 TD 30 -1 2 297
1990262N15315 1990 89 NA NA NOT_NAMED 1990-09-21 03:00:00 TS 16.8500 -48.9850 main 1345 1345 P_____________ AL111990 16.8500 -48.9850 TD 30 -1 2 298
1990262N15315 1990 89 NA NA NOT_NAMED 1990-09-21 06:00:00 TS 16.9000 -49.1000 30 hurdat_atl main 1351 1342 O_____________ hurdat_atl AL111990 16.9000 -49.1000 TD 30 -1 3 289
1990262N15315 1990 89 NA NA NOT_NAMED 1990-09-21 09:00:00 TS 16.9500 -49.2925 main 1352 1344 P_____________ AL111990 16.9500 -49.2925 TD 30 -1 4 285
1990262N15315 1990 89 NA NA NOT_NAMED 1990-09-21 12:00:00 TS 17.0000 -49.5000 30 hurdat_atl main 1344 1336 O_____________ hurdat_atl AL111990 17.0000 -49.5000 TD 30 -1 4 286
1990262N15315 1990 89 NA NA NOT_NAMED 1990-09-21 15:00:00 TS 17.0500 -49.6650 main 1336 1336 P_____________ AL111990 17.0500 -49.6650 TD 30 -1 3 289
1990262N15315 1990 89 NA NA NOT_NAMED 1990-09-21 18:00:00 TS 17.1000 -49.8000 30 hurdat_atl main 1342 1338 O_____________ hurdat_atl AL111990 17.1000 -49.8000 TD 30 -1 3 294
1990262N15315 1990 89 NA NA NOT_NAMED 1990-09-21 21:00:00 TS 17.1500 -49.9075 main 1338 1338 P_____________ AL111990 17.1500 -49.9075 TD 30 -1 2 298
1990262N15315 1990 89 NA NA NOT_NAMED 1990-09-22 00:00:00 TS 17.2000 -50.0000 30 hurdat_atl main 1345 1341 O_____________ hurdat_atl AL111990 17.2000 -50.0000 TD 30 -1 2 300
1990262N15315 1990 89 NA NA NOT_NAMED 1990-09-22 03:00:00 TS 17.2500 -50.0925 main 1341 1341 P_____________ AL111990 17.2500 -50.0925 TD 30 -1 2 298
1990262N15315 1990 89 NA NA NOT_NAMED 1990-09-22 06:00:00 TS 17.3000 -50.2000 30 hurdat_atl main 1348 1345 O_____________ hurdat_atl AL111990 17.3000 -50.2000 TD 30 -1 3 290
1990262N15315 1990 89 NA NA NOT_NAMED 1990-09-22 09:00:00 TS 17.3350 -50.3425 main 1345 1341 P_____________ AL111990 17.3350 -50.3425 TD 30 -1 3 289
1990262N15315 1990 89 NA NA NOT_NAMED 1990-09-22 12:00:00 TS 17.4000 -50.5000 30 hurdat_atl main 1349 1346 O_____________ hurdat_atl AL111990 17.4000 -50.5000 TD 30 -1 4 305
1990262N15315 1990 89 NA NA NOT_NAMED 1990-09-22 15:00:00 TS 17.5500 -50.6574 main 1352 1349 P_____________ AL111990 17.5500 -50.6574 TD 30 -1 4 317
1990262N15315 1990 89 NA NA NOT_NAMED 1990-09-22 18:00:00 TS 17.7000 -50.8000 30 hurdat_atl main 1349 1341 O_____________ hurdat_atl AL111990 17.7000 -50.8000 TD 30 -1 3 313
1990262N15315 1990 89 NA NA NOT_NAMED 1990-09-22 21:00:00 TS 17.7725 -50.9075 main 1347 1338 P_____________ AL111990 17.7725 -50.9075 TD 30 -1 2 298
1990262N15315 1990 89 NA NA NOT_NAMED 1990-09-23 00:00:00 TS 17.8000 -51.0000 30 hurdat_atl main 1338 1330 O_____________ hurdat_atl AL111990 17.8000 -51.0000 TD 30 -1 2 280
1990262N15315 1990 89 NA NA NOT_NAMED 1990-09-23 03:00:00 TS 17.8075 -51.1150 main 1330 1321 P_____________ AL111990 17.8075 -51.1150 TD 30 -1 2 270
1990262N15315 1990 89 NA NA NOT_NAMED 1990-09-23 06:00:00 TS 17.8000 -51.2000 30 hurdat_atl main 1321 1321 O_____________ hurdat_atl AL111990 17.8000 -51.2000 TD 30 -1 1 257
1990262N15315 1990 89 NA NA NOT_NAMED 1990-09-23 09:00:00 TS 17.7925 -51.1925 main 1321 1321 P_____________ AL111990 17.7925 -51.1925 TD 30 -1 0 0
1990262N15315 1990 89 NA NA NOT_NAMED 1990-09-23 12:00:00 TS 17.8000 -51.2000 30 hurdat_atl main 1321 1312 O_____________ hurdat_atl AL111990 17.8000 -51.2000 TD 30 -1 1 292
1990262N15315 1990 89 NA NA NOT_NAMED 1990-09-23 15:00:00 TS 17.8425 -51.3200 main 1312 1302 P_____________ AL111990 17.8425 -51.3200 TD 30 -1 3 289
1990262N15315 1990 89 NA NA NOT_NAMED 1990-09-23 18:00:00 TS 17.9000 -51.5000 30 hurdat_atl main 1302 1285 O_____________ hurdat_atl AL111990 17.9000 -51.5000 TD 30 -1 4 286
1990262N15315 1990 89 NA NA NOT_NAMED 1990-09-23 21:00:00 TS 17.9501 -51.7150 main 1292 1275 P_____________ AL111990 17.9501 -51.7150 TD 30 -1 4 285
1990262N15315 1990 89 NA NA NOT_NAMED 1990-09-24 00:00:00 TS 18.0000 -51.9000 30 hurdat_atl main 1275 1267 O_____________ hurdat_atl AL111990 18.0000 -51.9000 TD 30 -1 3 293
1990262N15315 1990 89 NA NA NOT_NAMED 1990-09-24 03:00:00 TS 18.0500 -51.9650 main 1267 1267 P_____________ AL111990 18.0500 -51.9650 TD 30 -1 1 317
1990262N15315 1990 89 NA NA NOT_NAMED 1990-09-24 06:00:00 TS 18.1000 -52.0000 30 hurdat_atl main 1274 1266 O_____________ hurdat_atl AL111990 18.1000 -52.0000 TD 30 -1 2 311
1990262N15315 1990 89 NA NA NOT_NAMED 1990-09-24 09:00:00 TS 18.1500 -52.0925 main 1273 1265 P_____________ AL111990 18.1500 -52.0925 TD 30 -1 2 298
1990262N15315 1990 89 NA NA NOT_NAMED 1990-09-24 12:00:00 TS 18.2000 -52.2000 30 hurdat_atl main 1265 1257 O_____________ hurdat_atl AL111990 18.2000 -52.2000 TD 30 -1 2 299
1990262N15315 1990 89 NA NA NOT_NAMED 1990-09-24 15:00:00 TS 18.2500 -52.2850 main 1257 1257 P_____________ AL111990 18.2500 -52.2850 TD 30 -1 2 298
1990262N15315 1990 89 NA NA NOT_NAMED 1990-09-24 18:00:00 TS 18.3000 -52.4000 30 hurdat_atl main 1257 1241 O_____________ hurdat_atl AL111990 18.3000 -52.4000 TD 30 -1 3 289
1990262N15315 1990 89 NA NA NOT_NAMED 1990-09-24 21:00:00 TS 18.3501 -52.6000 main 1248 1233 P_____________ AL111990 18.3501 -52.6000 TD 30 -1 4 285
1990262N15315 1990 89 NA NA NOT_NAMED 1990-09-25 00:00:00 TS 18.4000 -52.8000 30 hurdat_atl main 1233 1225 O_____________ hurdat_atl AL111990 18.4000 -52.8000 TD 30 -1 3 289
1990262N15315 1990 89 NA NA NOT_NAMED 1990-09-25 03:00:00 TS 18.4500 -52.9150 main 1225 1225 P_____________ AL111990 18.4500 -52.9150 TD 30 -1 2 298
1990262N15315 1990 89 NA NA NOT_NAMED 1990-09-25 06:00:00 TS 18.5000 -53.0000 30 hurdat_atl main 1225 1218 O_____________ hurdat_atl AL111990 18.5000 -53.0000 TD 30 -1 2 300
1990262N15315 1990 89 NA NA NOT_NAMED 1990-09-25 09:00:00 TS 18.5500 -53.1000 main 1226 1218 P_____________ AL111990 18.5500 -53.1000 TD 30 -1 2 298
1990262N15315 1990 89 NA NA NOT_NAMED 1990-09-25 12:00:00 TS 18.6000 -53.2000 30 hurdat_atl main 1218 1211 O_____________ hurdat_atl AL111990 18.6000 -53.2000 TD 30 -1 2 298
1990262N15315 1990 89 NA NA NOT_NAMED 1990-09-25 15:00:00 TS 18.6425 -53.2850 main 1211 1211 P_____________ AL111990 18.6425 -53.2850 TD 30 -1 2 298
1990262N15315 1990 89 NA NA NOT_NAMED 1990-09-25 18:00:00 TS 18.7000 -53.4000 30 hurdat_atl main 1212 1204 O_____________ hurdat_atl AL111990 18.7000 -53.4000 TD 30 -1 3 298
1990262N15315 1990 89 NA NA NOT_NAMED 1990-09-25 21:00:00 TS 18.8001 -53.5999 main 1206 1199 P_____________ AL111990 18.8001 -53.5999 TD 30 -1 4 298
1990262N15315 1990 89 NA NA NOT_NAMED 1990-09-26 00:00:00 TS 18.9000 -53.8000 30 hurdat_atl main 1200 1193 O_____________ hurdat_atl AL111990 18.9000 -53.8000 TD 30 -1 3 298
1990262N15315 1990 89 NA NA NOT_NAMED 1990-09-26 03:00:00 TS 18.9575 -53.9150 main 1202 1195 P_____________ AL111990 18.9575 -53.9150 TD 30 -1 2 298
1990262N15315 1990 89 NA NA NOT_NAMED 1990-09-26 06:00:00 TS 19.0000 -54.0000 30 hurdat_atl main 1195 1188 O_____________ hurdat_atl AL111990 19.0000 -54.0000 TD 30 -1 2 294
1990262N15315 1990 89 NA NA NOT_NAMED 1990-09-26 09:00:00 TS 19.0350 -54.1000 main 1188 1188 P_____________ AL111990 19.0350 -54.1000 TD 30 -1 2 298
1990262N15315 1990 89 NA NA NOT_NAMED 1990-09-26 12:00:00 TS 19.1000 -54.2000 30 hurdat_atl main 1190 1190 O_____________ hurdat_atl AL111990 19.1000 -54.2000 TD 30 -1 3 317
1990262N15315 1990 89 NA NA NOT_NAMED 1990-09-26 15:00:00 TS 19.2275 -54.2851 main 1192 1182 P_____________ AL111990 19.2275 -54.2851 TD 30 -1 4 328
1990262N15315 1990 89 NA NA NOT_NAMED 1990-09-26 18:00:00 TS 19.4000 -54.4000 30 hurdat_atl main 1183 1164 O_____________ hurdat_atl AL111990 19.4000 -54.4000 TD 30 -1 5 322
1990262N15315 1990 89 NA NA NOT_NAMED 1990-09-26 21:00:00 TS 19.6226 -54.6148 main 1164 1145 P_____________ AL111990 19.6226 -54.6148 TD 30 -1 6 317
1990262N15315 1990 89 NA NA NOT_NAMED 1990-09-27 00:00:00 TS 19.8000 -54.8000 30 hurdat_atl main 1145 1145 O_____________ hurdat_atl AL111990 19.8000 -54.8000 TD 30 -1 3 318
1990262N15315 1990 89 NA NA NOT_NAMED 1990-09-27 03:00:00 TS 19.8300 -54.8151 main 1145 1145 P_____________ AL111990 19.8300 -54.8151 TD 30 -1 0 0
1990262N15315 1990 89 NA NA NOT_NAMED 1990-09-27 06:00:00 TS 19.8000 -54.8000 30 hurdat_atl main 1145 1134 O_____________ hurdat_atl AL111990 19.8000 -54.8000 TD 30 -1 1 234
1990262N15315 1990 89 NA NA NOT_NAMED 1990-09-27 09:00:00 TS 19.7900 -54.8700 main 1134 1124 P_____________ AL111990 19.7900 -54.8700 TD 30 -1 2 270
1990262N15315 1990 89 NA NA NOT_NAMED 1990-09-27 12:00:00 TS 19.8000 -55.0000 30 hurdat_atl main 1124 O_____________ hurdat_atl AL111990 19.8000 -55.0000 TD 30 -1 2 275

About IBTrACS Database

This database is a web-friendly format of International Best Track Archive for Climate Stewardship (IBTrACS), a global best track data archive curated by NOAA dating back to 1842.

Updated: 2021-10-08